sensor_id;sensor_type;location;lat;lon;timestamp;pressure;altitude;pressure_sealevel;temperature;humidity
7433;BME280;32233;49.500;7.764;2023-04-28T00:02:07;98245.91;;;9.49;100.00
7433;BME280;32233;49.500;7.764;2023-04-28T00:04:33;98244.06;;;9.36;100.00
7433;BME280;32233;49.500;7.764;2023-04-28T00:07:00;98231.66;;;9.23;100.00
7433;BME280;32233;49.500;7.764;2023-04-28T00:09:26;98230.81;;;9.16;100.00
7433;BME280;32233;49.500;7.764;2023-04-28T00:11:55;98223.44;;;9.05;100.00
7433;BME280;32233;49.500;7.764;2023-04-28T00:14:22;98220.22;;;9.09;100.00
7433;BME280;32233;49.500;7.764;2023-04-28T00:16:48;98219.69;;;9.27;100.00
7433;BME280;32233;49.500;7.764;2023-04-28T00:19:15;98224.13;;;9.20;100.00
7433;BME280;32233;49.500;7.764;2023-04-28T00:21:41;98221.72;;;9.38;100.00
7433;BME280;32233;49.500;7.764;2023-04-28T00:24:08;98224.16;;;9.27;100.00
7433;BME280;32233;49.500;7.764;2023-04-28T00:26:34;98213.41;;;9.28;100.00
7433;BME280;32233;49.500;7.764;2023-04-28T00:29:01;98209.34;;;9.32;100.00
7433;BME280;32233;49.500;7.764;2023-04-28T00:31:27;98206.31;;;9.35;100.00
7433;BME280;32233;49.500;7.764;2023-04-28T00:33:54;98205.38;;;9.02;100.00
7433;BME280;32233;49.500;7.764;2023-04-28T00:36:20;98202.31;;;8.91;100.00
7433;BME280;32233;49.500;7.764;2023-04-28T00:38:47;98201.94;;;8.95;100.00
7433;BME280;32233;49.500;7.764;2023-04-28T00:41:13;98190.59;;;9.01;100.00
7433;BME280;32233;49.500;7.764;2023-04-28T00:43:47;98193.06;;;9.15;100.00
7433;BME280;32233;49.500;7.764;2023-04-28T00:46:26;98184.78;;;9.25;100.00
7433;BME280;32233;49.500;7.764;2023-04-28T00:48:55;98179.34;;;9.40;100.00
7433;BME280;32233;49.500;7.764;2023-04-28T00:51:22;98180.97;;;9.41;100.00
7433;BME280;32233;49.500;7.764;2023-04-28T00:53:49;98182.19;;;9.45;100.00
7433;BME280;32233;49.500;7.764;2023-04-28T00:56:16;98189.09;;;9.39;100.00
7433;BME280;32233;49.500;7.764;2023-04-28T00:58:42;98181.72;;;9.22;100.00
7433;BME280;32233;49.500;7.764;2023-04-28T01:01:09;98174.44;;;9.30;100.00
7433;BME280;32233;49.500;7.764;2023-04-28T01:03:38;98173.38;;;9.18;100.00
7433;BME280;32233;49.500;7.764;2023-04-28T01:06:07;98163.84;;;9.10;100.00
7433;BME280;32233;49.500;7.764;2023-04-28T01:08:37;98167.66;;;8.95;100.00
7433;BME280;32233;49.500;7.764;2023-04-28T01:11:07;98169.69;;;9.06;100.00
7433;BME280;32233;49.500;7.764;2023-04-28T01:14:05;98161.59;;;9.01;100.00
7433;BME280;32233;49.500;7.764;2023-04-28T01:16:35;98176.81;;;9.05;100.00
7433;BME280;32233;49.500;7.764;2023-04-28T01:19:06;98173.63;;;9.23;100.00
7433;BME280;32233;49.500;7.764;2023-04-28T01:21:36;98181.25;;;9.05;100.00
7433;BME280;32233;49.500;7.764;2023-04-28T01:24:23;98173.19;;;9.13;100.00
7433;BME280;32233;49.500;7.764;2023-04-28T01:26:49;98179.66;;;9.04;100.00
7433;BME280;32233;49.500;7.764;2023-04-28T01:29:16;98182.66;;;8.94;100.00
7433;BME280;32233;49.500;7.764;2023-04-28T01:31:43;98180.41;;;8.91;100.00
7433;BME280;32233;49.500;7.764;2023-04-28T01:34:09;98180.03;;;9.01;100.00
7433;BME280;32233;49.500;7.764;2023-04-28T01:36:37;98168.47;;;8.95;100.00
7433;BME280;32233;49.500;7.764;2023-04-28T01:39:04;98168.50;;;9.08;100.00
7433;BME280;32233;49.500;7.764;2023-04-28T01:41:31;98159.03;;;9.27;100.00
7433;BME280;32233;49.500;7.764;2023-04-28T01:44:02;98158.59;;;9.10;100.00
7433;BME280;32233;49.500;7.764;2023-04-28T01:46:30;98165.72;;;9.23;100.00
7433;BME280;32233;49.500;7.764;2023-04-28T01:48:56;98156.56;;;9.19;100.00
7433;BME280;32233;49.500;7.764;2023-04-28T01:51:23;98153.53;;;9.15;100.00
7433;BME280;32233;49.500;7.764;2023-04-28T01:53:50;98154.47;;;8.95;100.00
7433;BME280;32233;49.500;7.764;2023-04-28T01:56:17;98153.91;;;9.12;100.00
7433;BME280;32233;49.500;7.764;2023-04-28T01:58:43;98155.34;;;9.15;100.00
7433;BME280;32233;49.500;7.764;2023-04-28T02:01:11;98164.78;;;8.89;100.00
7433;BME280;32233;49.500;7.764;2023-04-28T02:03:38;98165.06;;;9.08;100.00
7433;BME280;32233;49.500;7.764;2023-04-28T02:06:04;98166.25;;;8.99;100.00
7433;BME280;32233;49.500;7.764;2023-04-28T02:08:31;98173.53;;;8.97;100.00
7433;BME280;32233;49.500;7.764;2023-04-28T02:10:57;98171.78;;;9.17;100.00
7433;BME280;32233;49.500;7.764;2023-04-28T02:13:24;98168.94;;;9.25;100.00
7433;BME280;32233;49.500;7.764;2023-04-28T02:15:51;98168.94;;;9.25;100.00
7433;BME280;32233;49.500;7.764;2023-04-28T02:18:19;98178.72;;;9.31;100.00
7433;BME280;32233;49.500;7.764;2023-04-28T02:20:46;98175.91;;;9.39;100.00
7433;BME280;32233;49.500;7.764;2023-04-28T02:23:12;98171.59;;;9.38;100.00
7433;BME280;32233;49.500;7.764;2023-04-28T02:25:39;98166.75;;;9.42;100.00
7433;BME280;32233;49.500;7.764;2023-04-28T02:28:05;98164.53;;;9.46;100.00
7433;BME280;32233;49.500;7.764;2023-04-28T02:30:33;98158.66;;;9.50;100.00
7433;BME280;32233;49.500;7.764;2023-04-28T02:32:59;98151.53;;;9.31;100.00
7433;BME280;32233;49.500;7.764;2023-04-28T02:35:26;98147.84;;;9.18;100.00
7433;BME280;32233;49.500;7.764;2023-04-28T02:37:53;98143.50;;;8.98;100.00
7433;BME280;32233;49.500;7.764;2023-04-28T02:40:20;98141.09;;;8.96;100.00
7433;BME280;32233;49.500;7.764;2023-04-28T02:42:46;98134.84;;;9.17;100.00
7433;BME280;32233;49.500;7.764;2023-04-28T02:45:13;98134.84;;;9.17;100.00
7433;BME280;32233;49.500;7.764;2023-04-28T02:47:39;98128.53;;;9.05;100.00
7433;BME280;32233;49.500;7.764;2023-04-28T02:50:07;98135.78;;;8.89;100.00
7433;BME280;32233;49.500;7.764;2023-04-28T02:52:33;98136.81;;;8.88;100.00
7433;BME280;32233;49.500;7.764;2023-04-28T02:55:00;98129.94;;;9.01;100.00
7433;BME280;32233;49.500;7.764;2023-04-28T02:57:29;98123.47;;;9.03;100.00
7433;BME280;32233;49.500;7.764;2023-04-28T02:59:56;98115.19;;;9.20;100.00
7433;BME280;32233;49.500;7.764;2023-04-28T03:02:24;98120.22;;;9.08;100.00
7433;BME280;32233;49.500;7.764;2023-04-28T03:04:51;98110.72;;;9.07;100.00
7433;BME280;32233;49.500;7.764;2023-04-28T03:07:17;98112.94;;;9.10;100.00
7433;BME280;32233;49.500;7.764;2023-04-28T03:09:44;98119.63;;;9.12;100.00
7433;BME280;32233;49.500;7.764;2023-04-28T03:12:11;98118.63;;;9.20;100.00
7433;BME280;32233;49.500;7.764;2023-04-28T03:14:38;98116.84;;;9.27;100.00
7433;BME280;32233;49.500;7.764;2023-04-28T03:17:04;98115.41;;;9.31;100.00
7433;BME280;32233;49.500;7.764;2023-04-28T03:19:31;98116.63;;;9.29;100.00
7433;BME280;32233;49.500;7.764;2023-04-28T03:21:58;98118.06;;;9.31;100.00
7433;BME280;32233;49.500;7.764;2023-04-28T03:24:25;98117.38;;;9.09;100.00
7433;BME280;32233;49.500;7.764;2023-04-28T03:26:52;98113.56;;;9.12;100.00
7433;BME280;32233;49.500;7.764;2023-04-28T03:29:18;98114.53;;;9.04;100.00
7433;BME280;32233;49.500;7.764;2023-04-28T03:31:45;98112.31;;;9.08;100.00
7433;BME280;32233;49.500;7.764;2023-04-28T03:34:11;98111.72;;;9.12;100.00
7433;BME280;32233;49.500;7.764;2023-04-28T03:36:39;98112.72;;;9.05;100.00
7433;BME280;32233;49.500;7.764;2023-04-28T03:39:13;98104.19;;;8.96;100.00
7433;BME280;32233;49.500;7.764;2023-04-28T03:41:40;98107.22;;;9.00;100.00
7433;BME280;32233;49.500;7.764;2023-04-28T03:44:33;98097.56;;;9.27;100.00
7433;BME280;32233;49.500;7.764;2023-04-28T03:47:00;98094.91;;;9.33;100.00
7433;BME280;32233;49.500;7.764;2023-04-28T03:49:27;98089.03;;;9.25;100.00
7433;BME280;32233;49.500;7.764;2023-04-28T03:51:54;98085.97;;;9.34;100.00
7433;BME280;32233;49.500;7.764;2023-04-28T03:54:20;98085.16;;;9.21;100.00
7433;BME280;32233;49.500;7.764;2023-04-28T03:56:47;98083.72;;;9.05;100.00
7433;BME280;32233;49.500;7.764;2023-04-28T03:59:14;98087.22;;;9.18;100.00
7433;BME280;32233;49.500;7.764;2023-04-28T04:01:41;98076.63;;;9.12;100.00
7433;BME280;32233;49.500;7.764;2023-04-28T04:04:09;98084.72;;;9.04;100.00
7433;BME280;32233;49.500;7.764;2023-04-28T04:06:36;98074.41;;;9.15;100.00
7433;BME280;32233;49.500;7.764;2023-04-28T04:09:02;98068.13;;;9.16;100.00
7433;BME280;32233;49.500;7.764;2023-04-28T04:11:31;98064.88;;;9.21;100.00
7433;BME280;32233;49.500;7.764;2023-04-28T04:13:57;98067.72;;;9.13;100.00
7433;BME280;32233;49.500;7.764;2023-04-28T04:16:24;98073.59;;;9.15;100.00
7433;BME280;32233;49.500;7.764;2023-04-28T04:18:54;98067.50;;;9.08;100.00
7433;BME280;32233;49.500;7.764;2023-04-28T04:21:43;98056.56;;;9.11;100.00
7433;BME280;32233;49.500;7.764;2023-04-28T04:24:10;98066.88;;;8.99;100.00
7433;BME280;32233;49.500;7.764;2023-04-28T04:26:37;98056.97;;;9.08;100.00
7433;BME280;32233;49.500;7.764;2023-04-28T04:29:19;98056.56;;;9.11;100.00
7433;BME280;32233;49.500;7.764;2023-04-28T04:31:46;98050.88;;;9.07;100.00
7433;BME280;32233;49.500;7.764;2023-04-28T04:34:13;98053.50;;;9.14;100.00
7433;BME280;32233;49.500;7.764;2023-04-28T04:36:40;98047.44;;;9.33;100.00
7433;BME280;32233;49.500;7.764;2023-04-28T04:39:07;98049.66;;;9.16;100.00
7433;BME280;32233;49.500;7.764;2023-04-28T04:41:34;98056.16;;;9.21;100.00
7433;BME280;32233;49.500;7.764;2023-04-28T04:44:30;98057.59;;;9.36;100.00
7433;BME280;32233;49.500;7.764;2023-04-28T04:46:58;98054.34;;;9.41;100.00
7433;BME280;32233;49.500;7.764;2023-04-28T04:49:24;98055.56;;;9.52;100.00
7433;BME280;32233;49.500;7.764;2023-04-28T04:51:51;98052.50;;;9.48;100.00
7433;BME280;32233;49.500;7.764;2023-04-28T04:54:18;98050.28;;;9.52;100.00
7433;BME280;32233;49.500;7.764;2023-04-28T04:56:45;98053.72;;;9.32;100.00
7433;BME280;32233;49.500;7.764;2023-04-28T04:59:17;98054.34;;;9.41;100.00
7433;BME280;32233;49.500;7.764;2023-04-28T05:01:53;98046.00;;;9.51;100.00
7433;BME280;32233;49.500;7.764;2023-04-28T05:04:19;98049.03;;;9.54;100.00
7433;BME280;32233;49.500;7.764;2023-04-28T05:06:46;98050.25;;;9.58;100.00
7433;BME280;32233;49.500;7.764;2023-04-28T05:09:13;98045.38;;;9.62;100.00
7433;BME280;32233;49.500;7.764;2023-04-28T05:11:40;98052.72;;;9.60;100.00
7433;BME280;32233;49.500;7.764;2023-04-28T05:14:06;98048.66;;;9.64;100.00
7433;BME280;32233;49.500;7.764;2023-04-28T05:16:33;98043.38;;;9.57;100.00
7433;BME280;32233;49.500;7.764;2023-04-28T05:19:09;98047.63;;;9.65;100.00
7433;BME280;32233;49.500;7.764;2023-04-28T05:21:36;98036.06;;;9.66;100.00
7433;BME280;32233;49.500;7.764;2023-04-28T05:24:02;98037.09;;;9.52;100.00
7433;BME280;32233;49.500;7.764;2023-04-28T05:26:29;98037.28;;;9.63;100.00
7433;BME280;32233;49.500;7.764;2023-04-28T05:29:01;98029.56;;;9.49;100.00
7433;BME280;32233;49.500;7.764;2023-04-28T05:31:28;98034.47;;;9.52;100.00
7433;BME280;32233;49.500;7.764;2023-04-28T05:33:55;98048.66;;;9.64;100.00
7433;BME280;32233;49.500;7.764;2023-04-28T05:36:21;98055.75;;;9.77;100.00
7433;BME280;32233;49.500;7.764;2023-04-28T05:38:48;98068.09;;;9.83;100.00
7433;BME280;32233;49.500;7.764;2023-04-28T05:41:14;98050.88;;;9.80;100.00
7433;BME280;32233;49.500;7.764;2023-04-28T05:43:41;98049.06;;;9.61;100.00
7433;BME280;32233;49.500;7.764;2023-04-28T05:46:09;98048.03;;;9.49;100.00
7433;BME280;32233;49.500;7.764;2023-04-28T05:48:56;98054.53;;;9.66;100.00
7433;BME280;32233;49.500;7.764;2023-04-28T05:51:23;98057.13;;;9.79;100.00
7433;BME280;32233;49.500;7.764;2023-04-28T05:53:50;98057.75;;;9.81;100.00
7433;BME280;32233;49.500;7.764;2023-04-28T05:56:16;98058.97;;;9.79;100.00
7433;BME280;32233;49.500;7.764;2023-04-28T05:58:44;98056.72;;;9.82;100.00
7433;BME280;32233;49.500;7.764;2023-04-28T06:01:10;98043.34;;;9.84;100.00
7433;BME280;32233;49.500;7.764;2023-04-28T06:03:38;98048.00;;;9.75;100.00
7433;BME280;32233;49.500;7.764;2023-04-28T06:06:08;98048.38;;;9.99;100.00
7433;BME280;32233;49.500;7.764;2023-04-28T06:08:37;98045.72;;;9.99;100.00
7433;BME280;32233;49.500;7.764;2023-04-28T06:11:04;98052.06;;;9.84;100.00
7433;BME280;32233;49.500;7.764;2023-04-28T06:13:31;98040.88;;;9.89;100.00
7433;BME280;32233;49.500;7.764;2023-04-28T06:15:58;98035.22;;;9.79;100.00
7433;BME280;32233;49.500;7.764;2023-04-28T06:18:24;98048.44;;;9.72;100.00
7433;BME280;32233;49.500;7.764;2023-04-28T06:20:52;98055.59;;;10.36;100.00
7433;BME280;32233;49.500;7.764;2023-04-28T06:23:18;98064.63;;;9.96;100.00
7433;BME280;32233;49.500;7.764;2023-04-28T06:25:47;98065.47;;;9.89;100.00
7433;BME280;32233;49.500;7.764;2023-04-28T06:28:13;98068.91;;;9.90;100.00
7433;BME280;32233;49.500;7.764;2023-04-28T06:30:40;98060.19;;;9.96;100.00
7433;BME280;32233;49.500;7.764;2023-04-28T06:33:07;98061.38;;;9.93;100.00
7433;BME280;32233;49.500;7.764;2023-04-28T06:35:34;98058.34;;;9.97;100.00
7433;BME280;32233;49.500;7.764;2023-04-28T06:38:02;98048.94;;;10.14;100.00
7433;BME280;32233;49.500;7.764;2023-04-28T06:40:30;98047.53;;;10.25;100.00
7433;BME280;32233;49.500;7.764;2023-04-28T06:42:58;98041.41;;;10.31;100.00
7433;BME280;32233;49.500;7.764;2023-04-28T06:45:38;98063.34;;;10.31;100.00
7433;BME280;32233;49.500;7.764;2023-04-28T06:48:05;98080.09;;;10.57;100.00
7433;BME280;32233;49.500;7.764;2023-04-28T06:50:36;98069.03;;;10.80;100.00
7433;BME280;32233;49.500;7.764;2023-04-28T06:53:05;98053.78;;;10.82;100.00
7433;BME280;32233;49.500;7.764;2023-04-28T06:55:33;98051.44;;;10.60;100.00
7433;BME280;32233;49.500;7.764;2023-04-28T06:57:59;98057.19;;;10.44;100.00
7433;BME280;32233;49.500;7.764;2023-04-28T07:00:26;98055.91;;;10.60;100.00
7433;BME280;32233;49.500;7.764;2023-04-28T07:02:53;98061.16;;;10.66;100.00
7433;BME280;32233;49.500;7.764;2023-04-28T07:05:20;98059.97;;;10.62;100.00
7433;BME280;32233;49.500;7.764;2023-04-28T07:07:46;98060.75;;;10.70;100.00
7433;BME280;32233;49.500;7.764;2023-04-28T07:10:13;98070.94;;;10.66;100.00
7433;BME280;32233;49.500;7.764;2023-04-28T07:12:41;98069.34;;;10.58;100.00
7433;BME280;32233;49.500;7.764;2023-04-28T07:15:07;98065.81;;;10.71;100.00
7433;BME280;32233;49.500;7.764;2023-04-28T07:17:36;98060.56;;;10.64;100.00
7433;BME280;32233;49.500;7.764;2023-04-28T07:20:03;98063.34;;;10.76;100.00
7433;BME280;32233;49.500;7.764;2023-04-28T07:22:30;98057.66;;;10.73;100.00
7433;BME280;32233;49.500;7.764;2023-04-28T07:24:57;98067.72;;;11.77;100.00
7433;BME280;32233;49.500;7.764;2023-04-28T07:27:23;98067.47;;;12.04;100.00
7433;BME280;32233;49.500;7.764;2023-04-28T07:29:50;98074.31;;;11.43;100.00
7433;BME280;32233;49.500;7.764;2023-04-28T07:32:16;98071.34;;;11.33;100.00
7433;BME280;32233;49.500;7.764;2023-04-28T07:34:43;98069.75;;;11.25;100.00
7433;BME280;32233;49.500;7.764;2023-04-28T07:40:06;98052.03;;;11.26;100.00
7433;BME280;32233;49.500;7.764;2023-04-28T07:42:32;98050.56;;;11.05;100.00
7433;BME280;32233;49.500;7.764;2023-04-28T07:44:59;98050.47;;;11.18;100.00
7433;BME280;32233;49.500;7.764;2023-04-28T07:47:26;98052.16;;;11.37;100.00
7433;BME280;32233;49.500;7.764;2023-04-28T07:49:54;98044.34;;;11.49;100.00
7433;BME280;32233;49.500;7.764;2023-04-28T07:52:20;98036.91;;;11.58;100.00
7433;BME280;32233;49.500;7.764;2023-04-28T07:54:48;98029.03;;;11.76;100.00
7433;BME280;32233;49.500;7.764;2023-04-28T07:57:14;98032.69;;;11.75;100.00
7433;BME280;32233;49.500;7.764;2023-04-28T07:59:41;98031.72;;;11.95;100.00
7433;BME280;32233;49.500;7.764;2023-04-28T08:02:07;98040.38;;;12.20;100.00
7433;BME280;32233;49.500;7.764;2023-04-28T08:04:34;98041.78;;;12.23;100.00
7433;BME280;32233;49.500;7.764;2023-04-28T08:07:05;98036.56;;;12.34;100.00
7433;BME280;32233;49.500;7.764;2023-04-28T08:09:33;98031.25;;;12.16;100.00
7433;BME280;32233;49.500;7.764;2023-04-28T08:12:01;98037.69;;;12.27;100.00
7433;BME280;32233;49.500;7.764;2023-04-28T08:14:27;98037.91;;;12.25;100.00
7433;BME280;32233;49.500;7.764;2023-04-28T08:16:53;98043.78;;;12.27;100.00
7433;BME280;32233;49.500;7.764;2023-04-28T08:32:00;98049.44;;;12.49;100.00
7433;BME280;32233;49.500;7.764;2023-04-28T08:35:53;98047.44;;;12.45;100.00
7433;BME280;32233;49.500;7.764;2023-04-28T08:43:45;98050.44;;;12.67;100.00
7433;BME280;32233;49.500;7.764;2023-04-28T08:47:36;98058.66;;;12.77;100.00
7433;BME280;32233;49.500;7.764;2023-04-28T08:51:24;98049.84;;;12.95;100.00
7433;BME280;32233;49.500;7.764;2023-04-28T08:58:47;98060.09;;;12.91;100.00
7433;BME280;32233;49.500;7.764;2023-04-28T09:05:35;98056.00;;;13.07;100.00
7433;BME280;32233;49.500;7.764;2023-04-28T09:08:11;98054.53;;;13.11;100.00
7433;BME280;32233;49.500;7.764;2023-04-28T09:18:38;98054.38;;;13.06;100.00
7433;BME280;32233;49.500;7.764;2023-04-28T09:21:56;98059.91;;;13.04;100.00
7433;BME280;32233;49.500;7.764;2023-04-28T09:24:39;98064.97;;;12.94;100.00
7433;BME280;32233;49.500;7.764;2023-04-28T09:27:46;98059.47;;;13.07;100.00
7433;BME280;32233;49.500;7.764;2023-04-28T09:33:11;98053.41;;;13.30;100.00
7433;BME280;32233;49.500;7.764;2023-04-28T09:39:52;98063.75;;;13.74;100.00
7433;BME280;32233;49.500;7.764;2023-04-28T09:51:30;98068.81;;;13.87;100.00
7433;BME280;32233;49.500;7.764;2023-04-28T09:58:46;98072.97;;;13.83;100.00
7433;BME280;32233;49.500;7.764;2023-04-28T10:01:15;98077.63;;;13.76;100.00
7433;BME280;32233;49.500;7.764;2023-04-28T10:03:43;98075.53;;;13.78;100.00
7433;BME280;32233;49.500;7.764;2023-04-28T10:06:09;98076.56;;;13.77;100.00
7433;BME280;32233;49.500;7.764;2023-04-28T10:08:36;98069.97;;;13.79;100.00
7433;BME280;32233;49.500;7.764;2023-04-28T10:11:03;98071.63;;;13.92;100.00
7433;BME280;32233;49.500;7.764;2023-04-28T10:13:30;98071.72;;;13.97;100.00
7433;BME280;32233;49.500;7.764;2023-04-28T10:15:57;98073.34;;;13.98;100.00
7433;BME280;32233;49.500;7.764;2023-04-28T10:22:10;98066.16;;;14.10;100.00
7433;BME280;32233;49.500;7.764;2023-04-28T10:25:59;98072.88;;;14.01;100.00
7433;BME280;32233;49.500;7.764;2023-04-28T10:29:46;98074.38;;;14.09;100.00
7433;BME280;32233;49.500;7.764;2023-04-28T10:37:39;98066.34;;;14.32;100.00
7433;BME280;32233;49.500;7.764;2023-04-28T10:44:44;98062.66;;;14.33;100.00
7433;BME280;32233;49.500;7.764;2023-04-28T11:45:18;98055.84;;;14.37;100.00
7433;BME280;32233;49.500;7.764;2023-04-28T11:48:24;98062.31;;;14.42;100.00
7433;BME280;32233;49.500;7.764;2023-04-28T12:04:43;98066.63;;;15.00;100.00
7433;BME280;32233;49.500;7.764;2023-04-28T12:50:29;98044.47;;;17.10;100.00
7433;BME280;32233;49.500;7.764;2023-04-28T12:54:20;98040.41;;;17.34;100.00
7433;BME280;32233;49.500;7.764;2023-04-28T12:57:35;98030.53;;;17.03;100.00
7433;BME280;32233;49.500;7.764;2023-04-28T13:00:57;98031.38;;;16.81;100.00
7433;BME280;32233;49.500;7.764;2023-04-28T13:07:42;98018.69;;;18.63;100.00
7433;BME280;32233;49.500;7.764;2023-04-28T13:10:09;98010.22;;;19.78;90.07
7433;BME280;32233;49.500;7.764;2023-04-28T13:12:35;98002.47;;;20.47;87.46
7433;BME280;32233;49.500;7.764;2023-04-28T13:15:02;97998.25;;;20.90;87.42
7433;BME280;32233;49.500;7.764;2023-04-28T13:17:29;97995.00;;;21.62;72.71
7433;BME280;32233;49.500;7.764;2023-04-28T13:19:56;98009.59;;;20.17;79.60
7433;BME280;32233;49.500;7.764;2023-04-28T13:22:22;98008.63;;;19.21;87.40
7433;BME280;32233;49.500;7.764;2023-04-28T13:24:49;97996.56;;;18.83;88.57
7433;BME280;32233;49.500;7.764;2023-04-28T13:27:16;97992.41;;;18.45;91.61
7433;BME280;32233;49.500;7.764;2023-04-28T13:29:42;97990.34;;;17.99;92.90
7433;BME280;32233;49.500;7.764;2023-04-28T13:32:09;97987.53;;;17.31;96.17
7433;BME280;32233;49.500;7.764;2023-04-28T13:34:36;97981.13;;;17.00;98.38
7433;BME280;32233;49.500;7.764;2023-04-28T13:37:03;97984.66;;;16.79;97.45
7433;BME280;32233;49.500;7.764;2023-04-28T13:39:30;97987.50;;;16.45;100.00
7433;BME280;32233;49.500;7.764;2023-04-28T13:41:57;97992.72;;;16.13;100.00
7433;BME280;32233;49.500;7.764;2023-04-28T13:44:23;98001.81;;;15.95;100.00
7433;BME280;32233;49.500;7.764;2023-04-28T13:46:51;98007.19;;;15.78;100.00
7433;BME280;32233;49.500;7.764;2023-04-28T13:49:18;97997.84;;;15.76;100.00
7433;BME280;32233;49.500;7.764;2023-04-28T13:51:45;98008.19;;;15.72;100.00
7433;BME280;32233;49.500;7.764;2023-04-28T13:54:11;98013.63;;;15.82;100.00
7433;BME280;32233;49.500;7.764;2023-04-28T13:56:41;98012.56;;;15.83;100.00
7433;BME280;32233;49.500;7.764;2023-04-28T13:59:36;98004.28;;;15.80;100.00
7433;BME280;32233;49.500;7.764;2023-04-28T14:02:25;98001.19;;;15.88;100.00
7433;BME280;32233;49.500;7.764;2023-04-28T14:05:02;98009.44;;;15.87;100.00
7433;BME280;32233;49.500;7.764;2023-04-28T14:07:29;98007.50;;;15.82;100.00
7433;BME280;32233;49.500;7.764;2023-04-28T14:09:56;98004.34;;;15.85;100.00
7433;BME280;32233;49.500;7.764;2023-04-28T14:12:24;98012.06;;;15.65;100.00
7433;BME280;32233;49.500;7.764;2023-04-28T14:15:04;98009.06;;;15.44;100.00
7433;BME280;32233;49.500;7.764;2023-04-28T14:17:34;98004.28;;;15.29;100.00
7433;BME280;32233;49.500;7.764;2023-04-28T14:20:02;97989.19;;;14.84;100.00
7433;BME280;32233;49.500;7.764;2023-04-28T14:22:31;97990.63;;;14.75;100.00
7433;BME280;32233;49.500;7.764;2023-04-28T14:24:58;98008.03;;;14.66;100.00
7433;BME280;32233;49.500;7.764;2023-04-28T14:27:24;98009.16;;;14.70;100.00
7433;BME280;32233;49.500;7.764;2023-04-28T14:29:50;98007.97;;;14.78;100.00
7433;BME280;32233;49.500;7.764;2023-04-28T14:32:19;98013.94;;;14.85;100.00
7433;BME280;32233;49.500;7.764;2023-04-28T14:34:50;98005.41;;;15.00;100.00
7433;BME280;32233;49.500;7.764;2023-04-28T14:37:17;98001.69;;;15.18;100.00
7433;BME280;32233;49.500;7.764;2023-04-28T14:39:44;98003.66;;;15.39;100.00
7433;BME280;32233;49.500;7.764;2023-04-28T14:42:10;97999.53;;;15.65;100.00
7433;BME280;32233;49.500;7.764;2023-04-28T14:44:37;97996.31;;;16.02;100.00
7433;BME280;32233;49.500;7.764;2023-04-28T14:47:03;98000.56;;;16.47;100.00
7433;BME280;32233;49.500;7.764;2023-04-28T14:49:30;98000.25;;;16.92;100.00
7433;BME280;32233;49.500;7.764;2023-04-28T14:51:56;97979.25;;;17.01;100.00
7433;BME280;32233;49.500;7.764;2023-04-28T14:54:25;97975.63;;;17.12;100.00
7433;BME280;32233;49.500;7.764;2023-04-28T14:56:51;97974.00;;;17.11;100.00
7433;BME280;32233;49.500;7.764;2023-04-28T14:59:18;97969.94;;;17.03;100.00
7433;BME280;32233;49.500;7.764;2023-04-28T15:01:44;97971.75;;;16.71;100.00
7433;BME280;32233;49.500;7.764;2023-04-28T15:04:11;97973.03;;;16.68;100.00
7433;BME280;32233;49.500;7.764;2023-04-28T15:06:38;97973.25;;;16.62;100.00
7433;BME280;32233;49.500;7.764;2023-04-28T15:09:05;97978.47;;;16.51;100.00
7433;BME280;32233;49.500;7.764;2023-04-28T15:11:31;97981.19;;;16.56;100.00
7433;BME280;32233;49.500;7.764;2023-04-28T15:13:58;97988.97;;;16.36;100.00
7433;BME280;32233;49.500;7.764;2023-04-28T15:16:24;97994.13;;;16.43;100.00
7433;BME280;32233;49.500;7.764;2023-04-28T15:18:51;97977.09;;;16.71;100.00
7433;BME280;32233;49.500;7.764;2023-04-28T15:21:20;97981.84;;;16.69;100.00
7433;BME280;32233;49.500;7.764;2023-04-28T15:23:46;97975.63;;;16.85;100.00
7433;BME280;32233;49.500;7.764;2023-04-28T15:26:13;97978.22;;;16.75;100.00
7433;BME280;32233;49.500;7.764;2023-04-28T15:28:39;97975.72;;;16.68;100.00
7433;BME280;32233;49.500;7.764;2023-04-28T15:31:06;97970.63;;;16.67;100.00
7433;BME280;32233;49.500;7.764;2023-04-28T15:33:32;97962.88;;;16.65;100.00
7433;BME280;32233;49.500;7.764;2023-04-28T15:35:59;97963.47;;;16.72;100.00
7433;BME280;32233;49.500;7.764;2023-04-28T15:38:26;97966.75;;;16.74;100.00
7433;BME280;32233;49.500;7.764;2023-04-28T15:40:56;97964.69;;;16.59;100.00
7433;BME280;32233;49.500;7.764;2023-04-28T15:43:23;97964.03;;;16.47;100.00
7433;BME280;32233;49.500;7.764;2023-04-28T15:45:50;97956.16;;;16.35;100.00
7433;BME280;32233;49.500;7.764;2023-04-28T15:48:17;97954.78;;;16.55;100.00
7433;BME280;32233;49.500;7.764;2023-04-28T15:50:43;97948.59;;;16.49;100.00
7433;BME280;32233;49.500;7.764;2023-04-28T15:53:10;97949.25;;;16.62;100.00
7433;BME280;32233;49.500;7.764;2023-04-28T15:55:36;97951.31;;;16.54;100.00
7433;BME280;32233;49.500;7.764;2023-04-28T15:58:03;97958.19;;;16.50;100.00
7433;BME280;32233;49.500;7.764;2023-04-28T16:00:29;97958.22;;;16.77;100.00
7433;BME280;32233;49.500;7.764;2023-04-28T16:02:56;97947.31;;;16.79;100.00
7433;BME280;32233;49.500;7.764;2023-04-28T16:05:22;97954.50;;;16.78;100.00
7433;BME280;32233;49.500;7.764;2023-04-28T16:07:49;97955.94;;;16.91;100.00
7433;BME280;32233;49.500;7.764;2023-04-28T16:10:17;97964.09;;;17.06;100.00
7433;BME280;32233;49.500;7.764;2023-04-28T16:12:44;97965.69;;;17.07;100.00
7433;BME280;32233;49.500;7.764;2023-04-28T16:15:12;97945.66;;;17.10;99.54
7433;BME280;32233;49.500;7.764;2023-04-28T16:17:39;97951.06;;;17.15;100.00
7433;BME280;32233;49.500;7.764;2023-04-28T16:20:07;97951.47;;;17.02;98.03
7433;BME280;32233;49.500;7.764;2023-04-28T16:22:35;97953.00;;;16.93;100.00
7433;BME280;32233;49.500;7.764;2023-04-28T16:25:02;97944.16;;;16.87;100.00
7433;BME280;32233;49.500;7.764;2023-04-28T16:27:30;97946.56;;;16.89;98.87
7433;BME280;32233;49.500;7.764;2023-04-28T16:29:57;97952.72;;;16.89;99.63
7433;BME280;32233;49.500;7.764;2023-04-28T16:32:24;97953.59;;;16.95;97.61
7433;BME280;32233;49.500;7.764;2023-04-28T16:34:50;97954.38;;;16.95;97.33